createdAt,value
2018-02-12T00:00:18.217Z,15.52
2018-02-12T00:01:18.784Z,15.52
2018-02-12T00:02:19.348Z,15.70
2018-02-12T00:03:19.914Z,15.52
2018-02-12T00:04:20.482Z,15.52
2018-02-12T00:05:21.047Z,14.95
2018-02-12T00:06:21.611Z,15.14
2018-02-12T00:07:22.178Z,14.66
2018-02-12T00:08:22.746Z,14.47
2018-02-12T00:09:23.311Z,14.47
2018-02-12T00:10:23.884Z,14.57
2018-02-12T00:11:24.460Z,14.47
2018-02-12T00:12:25.027Z,14.47
2018-02-12T00:13:25.591Z,14.47
2018-02-12T00:14:26.157Z,14.28
2018-02-12T00:15:26.724Z,14.38
2018-02-12T00:16:27.291Z,14.47
2018-02-12T00:17:27.858Z,14.38
2018-02-12T00:18:28.439Z,14.38
2018-02-12T00:19:29.007Z,14.47
2018-02-12T00:20:29.576Z,14.38
2018-02-12T00:21:30.138Z,14.38
2018-02-12T00:22:30.708Z,14.19
2018-02-12T00:23:31.275Z,14.28
2018-02-12T00:24:31.842Z,14.47
2018-02-12T00:25:32.408Z,14.47
2018-02-12T00:26:32.973Z,14.66
2018-02-12T00:27:33.543Z,14.76
2018-02-12T00:28:34.110Z,14.66
2018-02-12T00:29:34.677Z,14.66
2018-02-12T00:30:35.243Z,14.66
2018-02-12T00:31:35.807Z,15.52
2018-02-12T00:32:36.373Z,15.61
2018-02-12T00:33:36.943Z,15.61
2018-02-12T00:34:37.509Z,15.42
2018-02-12T00:35:38.074Z,15.14
2018-02-12T00:36:38.640Z,15.42
2018-02-12T00:37:39.205Z,15.33
2018-02-12T00:38:39.772Z,15.70
2018-02-12T00:39:40.339Z,15.80
2018-02-12T00:40:40.910Z,15.33
2018-02-12T00:41:41.473Z,15.70
2018-02-12T00:42:42.042Z,16.46
2018-02-12T00:43:42.605Z,15.99
2018-02-12T00:44:43.174Z,15.89
2018-02-12T00:45:43.739Z,15.52
2018-02-12T00:46:44.306Z,15.70
2018-02-12T00:47:44.871Z,15.80
2018-02-12T00:48:45.437Z,15.14
2018-02-12T00:49:46.003Z,15.42
2018-02-12T00:50:46.569Z,14.66
2018-02-12T00:51:47.148Z,14.47
2018-02-12T00:52:47.713Z,14.47
2018-02-12T00:53:48.278Z,15.61
2018-02-12T00:54:48.845Z,15.70
2018-02-12T00:55:49.411Z,15.52
2018-02-12T00:56:49.978Z,15.61
2018-02-12T00:57:50.544Z,15.61
2018-02-12T00:58:51.124Z,15.52
2018-02-12T00:59:51.689Z,15.61
2018-02-12T01:00:52.256Z,15.80
2018-02-12T01:01:52.821Z,15.70
2018-02-12T01:02:53.389Z,15.52
2018-02-12T01:03:53.956Z,15.70
2018-02-12T01:04:54.522Z,15.99
2018-02-12T01:05:55.088Z,16.84
2018-02-12T01:06:55.654Z,16.84
2018-02-12T01:07:56.218Z,17.03
2018-02-12T01:08:56.784Z,17.41
2018-02-12T01:09:57.353Z,17.69
2018-02-12T01:10:57.916Z,18.07
2018-02-12T01:11:58.484Z,18.26
2018-02-12T01:12:59.051Z,18.26
2018-02-12T01:13:59.617Z,18.36
2018-02-12T01:15:00.182Z,19.11
2018-02-12T01:16:00.748Z,19.78
2018-02-12T01:17:01.316Z,19.97
2018-02-12T01:18:01.897Z,19.78
2018-02-12T01:19:02.464Z,20.44
2018-02-12T01:20:03.031Z,21.20
2018-02-12T01:21:03.611Z,23.19
2018-02-12T01:22:04.178Z,25.18
2018-02-12T01:23:04.744Z,26.12
2018-02-12T01:24:05.310Z,29.15
2018-02-12T01:25:05.876Z,29.91
2018-02-12T01:26:06.445Z,32.75
2018-02-12T01:27:07.012Z,34.36
2018-02-12T01:28:07.576Z,34.55
2018-02-12T01:29:08.142Z,34.92
2018-02-12T01:30:08.708Z,34.83
2018-02-12T01:31:09.288Z,34.17
2018-02-12T01:32:09.854Z,32.65
2018-02-12T01:33:10.420Z,31.33
2018-02-12T01:34:10.988Z,30.00
2018-02-12T01:35:11.569Z,29.15
2018-02-12T01:36:12.137Z,28.39
2018-02-12T01:37:12.703Z,27.92
2018-02-12T01:38:13.268Z,26.78
2018-02-12T01:39:13.835Z,25.74
2018-02-12T01:40:14.401Z,25.74
2018-02-12T01:41:14.968Z,25.18
2018-02-12T01:42:15.536Z,24.32
2018-02-12T01:43:16.102Z,23.85
2018-02-12T01:44:16.668Z,23.28
2018-02-12T01:45:17.236Z,22.81
2018-02-12T01:46:17.814Z,22.90
2018-02-12T01:47:18.380Z,23.09
2018-02-12T01:48:18.946Z,23.28
2018-02-12T01:49:19.516Z,22.71
2018-02-12T01:50:20.094Z,22.05
2018-02-12T01:51:20.661Z,22.05
2018-02-12T01:52:21.227Z,22.05
2018-02-12T01:53:21.798Z,21.30
2018-02-12T01:54:22.359Z,21.11
2018-02-12T01:55:22.925Z,21.20
2018-02-12T01:56:23.491Z,20.63
2018-02-12T01:57:24.057Z,20.63
2018-02-12T01:58:24.625Z,20.35
2018-02-12T01:59:25.190Z,20.25
2018-02-12T02:00:25.757Z,20.73
2018-02-12T02:01:26.325Z,20.92
2018-02-12T02:02:26.891Z,21.58
2018-02-12T02:03:27.472Z,21.30
2018-02-12T02:04:28.041Z,21.38
2018-02-12T02:05:28.606Z,21.00
2018-02-12T02:06:29.174Z,21.58
2018-02-12T02:07:29.738Z,21.77
2018-02-12T02:08:30.303Z,22.05
2018-02-12T02:09:30.874Z,22.62
2018-02-12T02:10:31.435Z,22.33
2018-02-12T02:11:32.002Z,22.05
2018-02-12T02:12:32.569Z,21.28
2018-02-12T02:13:33.136Z,21.28
2018-02-12T02:14:33.702Z,21.20
2018-02-12T02:15:34.267Z,20.90
2018-02-12T02:16:34.845Z,20.06
2018-02-12T02:17:35.410Z,20.25
2018-02-12T02:18:35.976Z,19.87
2018-02-12T02:19:36.555Z,18.82
2018-02-12T02:20:37.122Z,18.35
2018-02-12T02:21:37.688Z,18.44
2018-02-12T02:22:38.256Z,17.97
2018-02-12T02:23:38.821Z,17.60
2018-02-12T02:24:39.389Z,17.69
2018-02-12T02:25:39.954Z,17.03
2018-02-12T02:26:40.520Z,16.46
2018-02-12T02:27:41.089Z,16.27
2018-02-12T02:28:41.664Z,15.99
2018-02-12T02:29:42.245Z,15.89
2018-02-12T02:30:42.823Z,15.89
2018-02-12T02:31:43.391Z,16.09
2018-02-12T02:32:43.957Z,16.55
2018-02-12T02:33:44.523Z,17.12
2018-02-12T02:34:45.088Z,17.03
2018-02-12T02:35:45.654Z,16.84
2018-02-12T02:36:46.232Z,16.37
2018-02-12T02:37:46.788Z,16.37
2018-02-12T02:38:47.360Z,15.99
2018-02-12T02:39:47.937Z,15.80
2018-02-12T02:40:48.517Z,15.71
2018-02-12T02:41:49.095Z,15.80
2018-02-12T02:42:49.664Z,15.33
2018-02-12T02:43:50.243Z,14.95
2018-02-12T02:44:50.810Z,15.42
2018-02-12T02:45:51.399Z,15.42
2018-02-12T02:46:51.942Z,14.67
2018-02-12T02:47:52.507Z,15.42
2018-02-12T02:48:53.071Z,15.61
2018-02-12T02:49:53.638Z,16.27
2018-02-12T02:50:54.204Z,16.37
2018-02-12T02:51:54.770Z,16.85
2018-02-12T02:52:55.336Z,16.84
2018-02-12T02:53:55.904Z,16.56
2018-02-12T02:54:56.484Z,16.85
2018-02-12T02:55:57.064Z,16.93
2018-02-12T02:56:57.629Z,16.37
2018-02-12T02:57:58.208Z,16.09
2018-02-12T02:58:58.774Z,15.71
2018-02-12T02:59:59.339Z,15.80
2018-02-12T03:00:59.908Z,15.61
2018-02-12T03:02:00.486Z,15.42
2018-02-12T03:03:01.051Z,15.05
2018-02-12T03:04:01.619Z,14.76
2018-02-12T03:05:02.183Z,14.66
2018-02-12T03:06:02.749Z,14.67
2018-02-12T03:07:03.316Z,14.19
2018-02-12T03:08:03.885Z,14.38
2018-02-12T03:09:04.464Z,14.00
2018-02-12T03:10:05.033Z,13.53
2018-02-12T03:11:05.598Z,14.00
2018-02-12T03:12:06.162Z,14.39
2018-02-12T03:13:06.728Z,14.48
2018-02-12T03:14:07.295Z,15.61
2018-02-12T03:15:07.872Z,15.71
2018-02-12T03:16:08.437Z,16.66
2018-02-12T03:17:09.003Z,16.85
2018-02-12T03:18:09.571Z,16.74
2018-02-12T03:19:10.138Z,16.85
2018-02-12T03:20:10.707Z,16.47
2018-02-12T03:21:11.271Z,16.55
2018-02-12T03:22:11.837Z,17.03
2018-02-12T03:23:12.401Z,17.41
2018-02-12T03:24:12.966Z,17.79
2018-02-12T03:25:13.534Z,17.98
2018-02-12T03:26:14.099Z,18.16
2018-02-12T03:27:14.666Z,17.79
2018-02-12T03:28:15.230Z,17.97
2018-02-12T03:29:15.797Z,17.79
2018-02-12T03:30:16.362Z,17.97
2018-02-12T03:31:16.985Z,18.35
2018-02-12T03:32:17.494Z,18.16
2018-02-12T03:33:18.059Z,17.12
2018-02-12T03:34:18.627Z,17.22
2018-02-12T03:35:19.192Z,16.93
2018-02-12T03:36:19.758Z,16.46
2018-02-12T03:37:20.322Z,16.74
2018-02-12T03:38:20.903Z,16.46
2018-02-12T03:39:21.469Z,16.93
2018-02-12T03:40:22.049Z,17.12
2018-02-12T03:41:22.614Z,17.22
2018-02-12T03:42:23.184Z,18.07
2018-02-12T03:43:23.749Z,18.35
2018-02-12T03:44:24.319Z,18.26
2018-02-12T03:45:24.883Z,17.97
2018-02-12T03:46:25.446Z,17.97
2018-02-12T03:47:26.013Z,17.50
2018-02-12T03:48:26.580Z,16.46
2018-02-12T03:49:27.146Z,15.42
2018-02-12T03:50:27.714Z,14.76
2018-02-12T03:51:28.279Z,14.19
2018-02-12T03:52:28.844Z,13.34
2018-02-12T03:53:29.408Z,12.77
2018-02-12T03:54:29.988Z,12.11
2018-02-12T03:55:30.555Z,10.88
2018-02-12T03:56:31.118Z,9.74
2018-02-12T03:57:31.683Z,9.36
2018-02-12T03:58:32.248Z,8.80
2018-02-12T03:59:32.814Z,8.89
2018-02-12T04:00:33.382Z,8.51
2018-02-12T04:01:33.945Z,8.23
2018-02-12T04:02:34.511Z,8.23
2018-02-12T04:03:35.077Z,8.89
2018-02-12T04:04:35.640Z,9.93
2018-02-12T04:05:36.204Z,9.84
2018-02-12T04:06:36.769Z,10.41
2018-02-12T04:07:37.336Z,10.78
2018-02-12T04:08:37.903Z,10.88
2018-02-12T04:09:38.469Z,11.16
2018-02-12T04:10:39.039Z,10.50
2018-02-12T04:11:39.598Z,9.55
2018-02-12T04:12:40.175Z,8.61
2018-02-12T04:13:40.740Z,7.38
2018-02-12T04:14:41.304Z,6.62
2018-02-12T04:15:41.882Z,6.24
2018-02-12T04:16:42.447Z,6.43
2018-02-12T04:17:43.013Z,6.34
2018-02-12T04:18:43.579Z,6.43
2018-02-12T04:19:44.141Z,6.71
2018-02-12T04:20:44.705Z,6.34
2018-02-12T04:21:45.269Z,6.62
2018-02-12T04:22:45.833Z,6.52
2018-02-12T04:23:46.397Z,6.62
2018-02-12T04:24:46.960Z,7.00
2018-02-12T04:25:47.526Z,7.09
2018-02-12T04:26:48.091Z,6.71
2018-02-12T04:27:48.656Z,7.09
2018-02-12T04:28:49.223Z,7.28
2018-02-12T04:29:49.785Z,7.47
2018-02-12T04:30:50.351Z,7.95
2018-02-12T04:31:50.914Z,8.42
2018-02-12T04:32:51.477Z,8.33
2018-02-12T04:33:52.041Z,8.89
2018-02-12T04:34:52.607Z,9.27
2018-02-12T04:35:53.186Z,9.46
2018-02-12T04:36:53.750Z,10.88
2018-02-12T04:37:54.314Z,11.07
2018-02-12T04:38:54.880Z,11.44
2018-02-12T04:39:55.446Z,12.11
2018-02-12T04:40:56.024Z,12.68
2018-02-12T04:41:56.590Z,12.77
2018-02-12T04:42:57.157Z,13.90
2018-02-12T04:43:57.735Z,13.81
2018-02-12T04:44:58.302Z,14.66
2018-02-12T04:45:58.868Z,14.57
2018-02-12T04:46:59.435Z,14.57
2018-02-12T04:48:00.015Z,14.47
2018-02-12T04:49:00.579Z,15.33
2018-02-12T04:50:01.146Z,15.23
2018-02-12T04:51:01.711Z,16.08
2018-02-12T04:52:02.277Z,17.41
2018-02-12T04:53:02.840Z,17.69
2018-02-12T04:54:03.408Z,17.97
2018-02-12T04:55:03.975Z,18.73
2018-02-12T04:56:04.541Z,19.77
2018-02-12T04:57:05.107Z,19.01
2018-02-12T04:58:05.687Z,19.58
2018-02-12T04:59:06.252Z,19.87
2018-02-12T05:00:06.817Z,19.77
2018-02-12T05:01:07.381Z,19.87
2018-02-12T05:02:07.946Z,20.15
2018-02-12T05:03:08.512Z,20.15
2018-02-12T05:04:09.090Z,20.81
2018-02-12T05:05:09.655Z,21.28
2018-02-12T05:06:10.219Z,21.85
2018-02-12T05:07:10.785Z,21.76
2018-02-12T05:08:11.353Z,22.33
2018-02-12T05:09:11.930Z,22.61
2018-02-12T05:10:12.497Z,22.80
2018-02-12T05:11:13.064Z,22.89
2018-02-12T05:12:13.630Z,23.65
2018-02-12T05:13:14.196Z,23.93
2018-02-12T05:14:14.761Z,23.46
2018-02-12T05:15:15.326Z,23.36
2018-02-12T05:16:15.905Z,23.27
2018-02-12T05:17:16.469Z,23.74
2018-02-12T05:18:17.034Z,24.22
2018-02-12T05:19:17.598Z,24.69
2018-02-12T05:20:18.164Z,24.22
2018-02-12T05:21:18.733Z,24.12
2018-02-12T05:22:19.312Z,23.84
2018-02-12T05:23:19.876Z,23.36
2018-02-12T05:24:20.443Z,23.27
2018-02-12T05:25:21.008Z,22.99
2018-02-12T05:26:21.587Z,22.89
2018-02-12T05:27:22.153Z,23.18
2018-02-12T05:28:22.718Z,22.71
2018-02-12T05:29:23.283Z,22.33
2018-02-12T05:30:23.849Z,21.95
2018-02-12T05:31:24.415Z,22.04
2018-02-12T05:32:24.981Z,22.89
2018-02-12T05:33:25.546Z,22.04
2018-02-12T05:34:26.125Z,21.85
2018-02-12T05:35:26.692Z,21.28
2018-02-12T05:36:27.273Z,20.81
2018-02-12T05:37:27.839Z,21.57
2018-02-12T05:38:28.407Z,20.90
2018-02-12T05:39:28.971Z,20.25
2018-02-12T05:40:29.536Z,20.06
2018-02-12T05:41:30.101Z,19.11
2018-02-12T05:42:30.667Z,19.30
2018-02-12T05:43:31.228Z,19.49
2018-02-12T05:44:31.794Z,19.11
2018-02-12T05:45:32.361Z,19.01
2018-02-12T05:46:32.928Z,19.58
2018-02-12T05:47:33.508Z,19.30
2018-02-12T05:48:34.076Z,18.44
2018-02-12T05:49:34.638Z,19.39
2018-02-12T05:50:35.216Z,19.01
2018-02-12T05:51:35.797Z,19.68
2018-02-12T05:52:36.376Z,19.20
2018-02-12T05:53:36.944Z,19.58
2018-02-12T05:54:37.523Z,19.68
2018-02-12T05:55:38.087Z,20.15
2018-02-12T05:56:38.654Z,20.43
2018-02-12T05:57:39.220Z,20.81
2018-02-12T05:58:39.788Z,21.28
2018-02-12T05:59:40.351Z,20.72
2018-02-12T06:00:40.929Z,20.34
2018-02-12T06:01:41.497Z,20.72
2018-02-12T06:02:42.079Z,20.81
2018-02-12T06:03:42.643Z,21.76
2018-02-12T06:04:43.222Z,22.33
2018-02-12T06:05:43.788Z,22.42
2018-02-12T06:06:44.353Z,22.80
2018-02-12T06:07:44.918Z,22.99
2018-02-12T06:08:45.484Z,22.89
2018-02-12T06:09:46.053Z,22.89
2018-02-12T06:10:46.632Z,22.99
2018-02-12T06:11:47.211Z,24.22
2018-02-12T06:12:47.779Z,24.88
2018-02-12T06:13:48.355Z,25.35
2018-02-12T06:14:48.921Z,25.54
2018-02-12T06:15:49.485Z,25.54
2018-02-12T06:16:50.052Z,27.72
2018-02-12T06:17:50.626Z,28.19
2018-02-12T06:18:51.191Z,28.09
2018-02-12T06:19:51.755Z,28.85
2018-02-12T06:20:52.324Z,28.85
2018-02-12T06:21:52.903Z,30.55
2018-02-12T06:22:53.466Z,30.65
2018-02-12T06:23:54.032Z,31.31
2018-02-12T06:24:54.597Z,30.08
2018-02-12T06:25:55.176Z,30.08
2018-02-12T06:26:55.739Z,31.03
2018-02-12T06:27:56.318Z,30.36
2018-02-12T06:28:56.882Z,30.55
2018-02-12T06:29:57.448Z,30.27
2018-02-12T06:30:58.019Z,30.08
2018-02-12T06:31:58.583Z,31.12
2018-02-12T06:32:59.149Z,31.60
2018-02-12T06:33:59.717Z,31.60
2018-02-12T06:35:00.280Z,32.17
2018-02-12T06:36:00.869Z,31.98
2018-02-12T06:37:01.413Z,31.69
2018-02-12T06:38:01.978Z,31.22
2018-02-12T06:39:02.546Z,31.98
2018-02-12T06:40:03.111Z,31.88
2018-02-12T06:41:03.675Z,34.06
2018-02-12T06:42:04.245Z,34.63
2018-02-12T06:43:04.804Z,34.53
2018-02-12T06:44:05.368Z,36.90
2018-02-12T06:45:05.935Z,35.76
2018-02-12T06:46:06.500Z,34.72
2018-02-12T06:47:07.068Z,36.23
2018-02-12T06:48:07.631Z,35.95
2018-02-12T06:49:08.195Z,37.84
2018-02-12T06:50:08.760Z,40.11
2018-02-12T06:51:09.326Z,39.17
2018-02-12T06:52:09.891Z,41.06
2018-02-12T06:53:10.459Z,41.06
2018-02-12T06:54:11.025Z,44.84
2018-02-12T06:55:11.604Z,45.79
2018-02-12T06:56:12.173Z,45.03
2018-02-12T06:57:12.752Z,45.03
2018-02-12T06:58:13.319Z,44.93
2018-02-12T06:59:13.886Z,43.99
2018-02-12T07:00:14.452Z,42.95
2018-02-12T07:01:15.020Z,42.19
2018-02-12T07:02:15.587Z,41.63
2018-02-12T07:03:16.155Z,40.39
2018-02-12T07:04:16.719Z,40.30
2018-02-12T07:05:17.288Z,39.83
2018-02-12T07:06:17.852Z,38.60
2018-02-12T07:07:18.418Z,39.45
2018-02-12T07:08:18.984Z,38.98
2018-02-12T07:09:19.552Z,39.07
2018-02-12T07:10:20.118Z,38.22
2018-02-12T07:11:20.683Z,40.68
2018-02-12T07:12:21.249Z,39.64
2018-02-12T07:13:21.816Z,40.39
2018-02-12T07:14:22.383Z,39.26
2018-02-12T07:15:22.948Z,38.88
2018-02-12T07:16:23.516Z,38.41
2018-02-12T07:17:24.097Z,40.30
2018-02-12T07:18:24.679Z,40.30
2018-02-12T07:19:25.246Z,41.06
2018-02-12T07:20:25.816Z,41.34
2018-02-12T07:21:26.380Z,41.63
2018-02-12T07:22:26.945Z,41.25
2018-02-12T07:23:27.515Z,40.39
2018-02-12T07:24:28.084Z,39.73
2018-02-12T07:25:28.668Z,39.26
2018-02-12T07:26:29.237Z,38.31
2018-02-12T07:27:29.807Z,39.07
2018-02-12T07:28:30.375Z,39.45
2018-02-12T07:29:30.956Z,40.11
2018-02-12T07:30:31.523Z,40.87
2018-02-12T07:31:32.094Z,40.30
2018-02-12T07:32:32.661Z,39.26
2018-02-12T07:33:33.230Z,40.87
2018-02-12T07:34:33.799Z,41.06
2018-02-12T07:35:34.369Z,39.73
2018-02-12T07:36:34.938Z,38.22
2018-02-12T07:37:35.506Z,38.22
2018-02-12T07:38:36.077Z,39.83
2018-02-12T07:39:36.647Z,38.88
2018-02-12T07:40:37.216Z,38.79
2018-02-12T07:41:37.786Z,38.41
2018-02-12T07:42:38.394Z,37.74
2018-02-12T07:43:38.954Z,38.22
2018-02-12T07:44:39.537Z,38.12
2018-02-12T07:45:40.108Z,39.26
2018-02-12T07:46:40.677Z,38.79
2018-02-12T07:47:41.247Z,37.93
2018-02-12T07:48:41.817Z,38.22
2018-02-12T07:49:42.388Z,39.36
2018-02-12T07:50:42.956Z,39.54
2018-02-12T07:51:43.538Z,39.26
2018-02-12T07:52:44.110Z,38.98
2018-02-12T07:53:44.678Z,39.17
2018-02-12T07:54:45.248Z,37.84
2018-02-12T07:55:45.819Z,37.08
2018-02-12T07:56:46.388Z,36.52
2018-02-12T07:57:46.957Z,34.91
2018-02-12T07:58:47.527Z,34.34
2018-02-12T07:59:48.112Z,33.77
2018-02-12T08:00:48.694Z,32.54
2018-02-12T08:01:49.277Z,32.07
2018-02-12T08:02:49.846Z,31.31
2018-02-12T08:03:50.415Z,30.74
2018-02-12T08:04:50.988Z,29.90
2018-02-12T08:05:51.553Z,28.76
2018-02-12T08:06:52.121Z,29.33
2018-02-12T08:07:52.693Z,28.95
2018-02-12T08:08:53.261Z,28.66
2018-02-12T08:09:53.829Z,28.00
2018-02-12T08:10:54.398Z,28.66
2018-02-12T08:11:54.968Z,28.57
2018-02-12T08:12:55.551Z,28.57
2018-02-12T08:13:56.121Z,28.76
2018-02-12T08:14:56.690Z,29.61
2018-02-12T08:15:57.309Z,31.12
2018-02-12T08:16:57.829Z,32.26
2018-02-12T08:17:58.398Z,34.06
2018-02-12T08:18:58.972Z,34.44
2018-02-12T08:19:59.536Z,34.91
2018-02-12T08:21:00.121Z,36.52
2018-02-12T08:22:00.689Z,37.65
2018-02-12T08:23:01.258Z,37.84
2018-02-12T08:24:01.829Z,38.22
2018-02-12T08:25:02.398Z,37.74
2018-02-12T08:26:02.981Z,37.65
2018-02-12T08:27:03.550Z,36.99
2018-02-12T08:28:04.123Z,37.74
2018-02-12T08:29:04.690Z,36.90
2018-02-12T08:30:05.256Z,37.08
2018-02-12T08:31:05.838Z,36.80
2018-02-12T08:32:06.406Z,37.46
2018-02-12T08:33:06.976Z,37.74
2018-02-12T08:34:07.559Z,38.88
2018-02-12T08:35:08.130Z,39.07
2018-02-12T08:36:08.699Z,39.47
2018-02-12T08:37:09.269Z,39.92
2018-02-12T08:38:09.839Z,40.32
2018-02-12T08:39:10.407Z,40.32
2018-02-12T08:40:10.990Z,39.64
2018-02-12T08:41:11.561Z,40.51
2018-02-12T08:42:12.130Z,40.22
2018-02-12T08:43:12.700Z,40.22
2018-02-12T08:44:13.267Z,41.83
2018-02-12T08:45:13.839Z,41.93
2018-02-12T08:46:14.407Z,43.07
2018-02-12T08:47:14.975Z,43.26
2018-02-12T08:48:15.547Z,44.10
2018-02-12T08:49:16.161Z,43.73
2018-02-12T08:50:16.683Z,44.39
2018-02-12T08:51:17.255Z,45.15
2018-02-12T08:52:17.824Z,45.72
2018-02-12T08:53:18.392Z,45.15
2018-02-12T08:54:18.963Z,42.97
2018-02-12T08:55:19.545Z,40.03
2018-02-12T08:56:20.114Z,38.24
2018-02-12T08:57:20.684Z,36.72
2018-02-12T08:58:21.253Z,34.92
2018-02-12T08:59:21.824Z,34.34
2018-02-12T09:00:22.393Z,34.07
2018-02-12T09:01:22.962Z,34.92
2018-02-12T09:02:23.532Z,34.26
2018-02-12T09:03:24.102Z,35.68
2018-02-12T09:04:24.670Z,35.87
2018-02-12T09:05:25.239Z,34.64
2018-02-12T09:06:25.812Z,35.76
2018-02-12T09:07:26.380Z,36.15
2018-02-12T09:08:26.964Z,36.72
2018-02-12T09:09:27.534Z,36.61
2018-02-12T09:10:28.105Z,35.85
2018-02-12T09:11:28.674Z,36.14
2018-02-12T09:12:29.244Z,35.66
2018-02-12T09:13:29.815Z,34.91
2018-02-12T09:14:30.386Z,34.91
2018-02-12T09:15:30.954Z,35.11
2018-02-12T09:16:31.560Z,35.96
2018-02-12T09:17:32.096Z,36.82
2018-02-12T09:18:32.663Z,38.52
2018-02-12T09:19:33.234Z,39.28
2018-02-12T09:20:33.816Z,40.89
2018-02-12T09:21:34.386Z,41.46
2018-02-12T09:22:35.003Z,42.50
2018-02-12T09:23:35.553Z,42.40
2018-02-12T09:24:36.135Z,41.93
2018-02-12T09:25:36.703Z,41.64
2018-02-12T09:26:37.272Z,41.17
2018-02-12T09:27:37.841Z,40.98
2018-02-12T09:28:38.411Z,42.59
2018-02-12T09:29:38.979Z,42.97
2018-02-12T09:30:39.549Z,42.50
2018-02-12T09:31:40.133Z,42.69
2018-02-12T09:32:40.704Z,42.78
2018-02-12T09:33:41.273Z,42.59
2018-02-12T09:34:41.843Z,42.69
2018-02-12T09:35:42.413Z,43.91
2018-02-12T09:36:42.982Z,43.82
2018-02-12T09:37:43.552Z,44.48
2018-02-12T09:38:44.123Z,45.15
2018-02-12T09:39:44.692Z,44.67
2018-02-12T09:40:45.261Z,43.82
2018-02-12T09:41:45.832Z,44.77
2018-02-12T09:42:46.401Z,46.37
2018-02-12T09:43:46.983Z,46.66
2018-02-12T09:44:47.553Z,46.75
2018-02-12T09:45:48.123Z,46.94
2018-02-12T09:46:48.691Z,48.36
2018-02-12T09:47:49.262Z,48.65
2018-02-12T09:48:49.832Z,48.46
2018-02-12T09:49:50.401Z,47.51
2018-02-12T09:50:50.971Z,47.80
2018-02-12T09:51:51.541Z,51.20
2018-02-12T09:52:52.115Z,52.72
2018-02-12T09:53:52.678Z,53.00
2018-02-12T09:54:53.248Z,53.95
2018-02-12T09:55:53.817Z,54.52
2018-02-12T09:56:54.386Z,55.56
2018-02-12T09:57:54.954Z,58.33
2018-02-12T09:58:55.524Z,57.57
2018-02-12T09:59:56.096Z,56.44
2018-02-12T10:00:56.679Z,57.57
2018-02-12T10:01:57.262Z,57.20
2018-02-12T10:02:57.832Z,56.15
2018-02-12T10:03:58.401Z,59.66
2018-02-12T10:04:58.971Z,59.75
2018-02-12T10:05:59.541Z,58.71
2018-02-12T10:07:00.112Z,61.46
2018-02-12T10:08:00.692Z,60.61
2018-02-12T10:09:01.263Z,61.74
2018-02-12T10:10:01.833Z,64.49
2018-02-12T10:11:02.403Z,63.54
2018-02-12T10:12:02.973Z,63.54
2018-02-12T10:13:03.540Z,63.92
2018-02-12T10:14:04.124Z,65.34
2018-02-12T10:15:04.694Z,69.51
2018-02-12T10:16:05.277Z,69.79
2018-02-12T10:17:05.893Z,68.56
2018-02-12T10:18:06.415Z,68.94
2018-02-12T10:19:06.985Z,70.64
2018-02-12T10:20:07.553Z,70.26
2018-02-12T10:21:08.122Z,70.64
2018-02-12T10:22:08.694Z,70.26
2018-02-12T10:23:09.262Z,71.12
2018-02-12T10:24:09.833Z,72.06
2018-02-12T10:25:10.404Z,72.63
2018-02-12T10:26:10.994Z,71.69
2018-02-12T10:27:11.543Z,69.98
2018-02-12T10:28:12.111Z,73.20
2018-02-12T10:29:12.681Z,73.77
2018-02-12T10:30:13.252Z,73.58
2018-02-12T10:31:13.819Z,73.86
2018-02-12T10:32:14.401Z,72.92
2018-02-12T10:33:14.962Z,71.91
2018-02-12T10:34:15.530Z,71.53
2018-02-12T10:35:16.101Z,73.52
2018-02-12T10:36:16.672Z,74.43
2018-02-12T10:37:17.242Z,73.20
2018-02-12T10:38:17.813Z,73.49
2018-02-12T10:39:18.386Z,72.38
2018-02-12T10:40:18.967Z,73.39
2018-02-12T10:41:19.550Z,72.73
2018-02-12T10:42:20.182Z,71.87
2018-02-12T10:43:20.702Z,72.10
2018-02-12T10:44:21.286Z,72.10
2018-02-12T10:45:21.855Z,71.06
2018-02-12T10:46:22.424Z,75.60
2018-02-12T10:47:22.993Z,77.40
2018-02-12T10:48:23.568Z,77.69
2018-02-12T10:49:24.137Z,78.64
2018-02-12T10:50:24.708Z,76.55
2018-02-12T10:51:25.278Z,77.69
2018-02-12T10:52:25.848Z,77.40
2018-02-12T10:53:26.472Z,76.36
2018-02-12T10:54:26.989Z,75.60
2018-02-12T10:55:27.558Z,76.84
2018-02-12T10:56:28.128Z,77.40
2018-02-12T10:57:28.703Z,78.07
2018-02-12T10:58:29.285Z,81.01
2018-02-12T10:59:29.853Z,78.92
2018-02-12T11:00:30.473Z,79.68
2018-02-12T11:01:31.044Z,79.49
2018-02-12T11:02:31.612Z,77.88
2018-02-12T11:03:32.184Z,79.49
2018-02-12T11:04:32.753Z,80.63
2018-02-12T11:05:33.322Z,80.91
2018-02-12T11:06:33.893Z,79.96
2018-02-12T11:07:34.465Z,79.49
2018-02-12T11:08:35.034Z,78.54
2018-02-12T11:09:35.618Z,82.14
2018-02-12T11:10:36.186Z,81.38
2018-02-12T11:11:36.759Z,78.54
2018-02-12T11:12:37.327Z,80.91
2018-02-12T11:13:37.897Z,82.05
2018-02-12T11:14:38.467Z,81.76
2018-02-12T11:15:39.037Z,81.57
2018-02-12T11:16:39.607Z,82.05
2018-02-12T11:17:40.176Z,80.53
2018-02-12T11:18:40.747Z,83.09
2018-02-12T11:19:41.320Z,84.13
2018-02-12T11:20:41.890Z,84.70
2018-02-12T11:21:42.495Z,83.18
2018-02-12T11:22:43.032Z,86.41
2018-02-12T11:23:43.607Z,88.96
2018-02-12T11:24:44.172Z,92.85
2018-02-12T11:25:44.743Z,87.54
2018-02-12T11:26:45.313Z,89.44
2018-02-12T11:27:45.883Z,90.48
2018-02-12T11:28:46.456Z,92.57
2018-02-12T11:29:47.040Z,93.51
2018-02-12T11:30:47.611Z,91.81
2018-02-12T11:31:48.182Z,93.70
2018-02-12T11:32:48.753Z,92.61
2018-02-12T11:33:49.322Z,93.89
2018-02-12T11:34:49.891Z,91.47
2018-02-12T11:35:50.463Z,92.76
2018-02-12T11:36:51.033Z,93.65
2018-02-12T11:37:51.602Z,93.08
2018-02-12T11:38:52.186Z,94.89
2018-02-12T11:39:52.756Z,95.55
2018-02-12T11:40:53.326Z,95.55
2018-02-12T11:41:53.898Z,94.56
2018-02-12T11:42:54.484Z,94.46
2018-02-12T11:43:55.053Z,93.61
2018-02-12T11:44:55.619Z,92.66
2018-02-12T11:45:56.190Z,94.27
2018-02-12T11:46:56.776Z,94.23
2018-02-12T11:47:57.362Z,93.37
2018-02-12T11:48:57.940Z,93.42
2018-02-12T11:49:58.501Z,94.37
2018-02-12T11:50:59.072Z,93.80
2018-02-12T11:51:59.642Z,96.45
2018-02-12T11:53:00.213Z,95.31
2018-02-12T11:54:00.782Z,95.65
2018-02-12T11:55:01.353Z,95.36
2018-02-12T11:56:01.925Z,94.98
2018-02-12T11:57:02.494Z,95.07
2018-02-12T11:58:03.064Z,94.79
2018-02-12T11:59:03.635Z,93.75
2018-02-12T12:00:04.205Z,97.16
2018-02-12T12:01:04.825Z,96.97
2018-02-12T12:02:05.396Z,95.93
2018-02-12T12:03:05.966Z,96.12
2018-02-12T12:04:06.538Z,97.54
2018-02-12T12:05:07.107Z,97.07
2018-02-12T12:06:07.676Z,95.55
2018-02-12T12:07:08.248Z,94.32
2018-02-12T12:08:08.820Z,95.74
2018-02-12T12:09:09.391Z,95.07
2018-02-12T12:10:09.962Z,94.74
2018-02-12T12:11:10.546Z,94.13
2018-02-12T12:12:11.119Z,94.32
2018-02-12T12:13:11.688Z,93.56
2018-02-12T12:14:12.258Z,94.18
2018-02-12T12:15:12.830Z,92.42
2018-02-12T12:16:13.399Z,94.23
2018-02-12T12:17:13.971Z,93.75
2018-02-12T12:18:14.541Z,91.95
2018-02-12T12:19:15.110Z,94.51
2018-02-12T12:20:15.683Z,93.75
2018-02-12T12:21:16.250Z,94.32
2018-02-12T12:22:16.821Z,95.17
2018-02-12T12:23:17.393Z,96.31
2018-02-12T12:24:17.963Z,94.98
2018-02-12T12:25:18.534Z,96.12
2018-02-12T12:26:19.107Z,96.50
2018-02-12T12:27:19.676Z,95.17
2018-02-12T12:28:20.260Z,94.51
2018-02-12T12:29:20.830Z,96.12
2018-02-12T12:30:21.403Z,97.92
2018-02-12T12:31:21.972Z,96.78
2018-02-12T12:32:22.544Z,95.84
2018-02-12T12:33:23.114Z,95.26
2018-02-12T12:34:23.684Z,96.50
2018-02-12T12:35:24.258Z,97.16
2018-02-12T12:36:24.827Z,94.13
2018-02-12T12:37:25.409Z,95.36
2018-02-12T12:38:25.979Z,95.65
2018-02-12T12:39:26.550Z,97.92
2018-02-12T12:40:27.126Z,95.55
2018-02-12T12:41:27.692Z,96.31
2018-02-12T12:42:28.262Z,95.17
2018-02-12T12:43:28.834Z,98.02
2018-02-12T12:44:29.404Z,98.30
2018-02-12T12:45:29.989Z,99.99
2018-02-12T12:46:30.566Z,99.99
2018-02-12T12:47:31.133Z,99.99
2018-02-12T12:48:31.703Z,99.99
2018-02-12T12:49:32.274Z,99.99
2018-02-12T12:50:32.844Z,97.83
2018-02-12T12:51:33.415Z,98.39
2018-02-12T12:52:33.987Z,98.02
2018-02-12T12:53:34.557Z,98.58
2018-02-12T12:54:35.127Z,99.44
2018-02-12T12:55:35.698Z,99.44
2018-02-12T12:56:36.269Z,98.11
2018-02-12T12:57:36.838Z,97.83
2018-02-12T12:58:37.410Z,98.87
2018-02-12T12:59:37.980Z,99.06
2018-02-12T13:00:38.549Z,98.68